sensor_id;sensor_type;location;lat;lon;timestamp;P1;P2;P0
74434;PMS7003;62867;52.038;29.256;2023-07-31T00:00:35;0.2;0;0
74434;PMS7003;62867;52.038;29.256;2023-07-31T00:06:05;0.8;0.6;0.4
74434;PMS7003;62867;52.038;29.256;2023-07-31T00:10:29;1.2;0.8;0.4
74434;PMS7003;62867;52.038;29.256;2023-07-31T00:15:15;0.2;0.2;0
74434;PMS7003;62867;52.038;29.256;2023-07-31T00:20:49;0.2;0;0
74434;PMS7003;62867;52.038;29.256;2023-07-31T00:25:37;0.8;0.8;0.6
74434;PMS7003;62867;52.038;29.256;2023-07-31T00:31:05;0.4;0;0
74434;PMS7003;62867;52.038;29.256;2023-07-31T00:35:35;0.8;0.3;0.3
74434;PMS7003;62867;52.038;29.256;2023-07-31T00:41:05;0.6;0.6;0.4
74434;PMS7003;62867;52.038;29.256;2023-07-31T00:45:35;0;0;0
74434;PMS7003;62867;52.038;29.256;2023-07-31T00:51:05;0.6;0.4;0.4
74434;PMS7003;62867;52.038;29.256;2023-07-31T00:55:49;0.4;0.4;0.2
74434;PMS7003;62867;52.038;29.256;2023-07-31T01:00:51;0.4;0;0
74434;PMS7003;62867;52.038;29.256;2023-07-31T01:05:31;0.4;0.4;0.4
74434;PMS7003;62867;52.038;29.256;2023-07-31T01:10:50;0.2;0.2;0
74434;PMS7003;62867;52.038;29.256;2023-07-31T01:15:29;0.6;0.6;0.4
74434;PMS7003;62867;52.038;29.256;2023-07-31T01:20:16;0.6;0.4;0.2
74434;PMS7003;62867;52.038;29.256;2023-07-31T01:26:05;0.8;0.4;0.2
74434;PMS7003;62867;52.038;29.256;2023-07-31T01:30:27;0.6;0.6;0.4
74434;PMS7003;62867;52.038;29.256;2023-07-31T01:36:05;0;0;0
74434;PMS7003;62867;52.038;29.256;2023-07-31T01:41:05;0;0;0
74434;PMS7003;62867;52.038;29.256;2023-07-31T01:45:49;0;0;0
74434;PMS7003;62867;52.038;29.256;2023-07-31T01:50:15;0.2;0.2;0
74434;PMS7003;62867;52.038;29.256;2023-07-31T01:55:51;0.2;0;0
74434;PMS7003;62867;52.038;29.256;2023-07-31T02:01:05;0;0;0
74434;PMS7003;62867;52.038;29.256;2023-07-31T02:05:49;0.2;0;0
74434;PMS7003;62867;52.038;29.256;2023-07-31T02:10:29;0;0;0
74434;PMS7003;62867;52.038;29.256;2023-07-31T02:16:05;0;0;0
74434;PMS7003;62867;52.038;29.256;2023-07-31T02:21:05;0;0;0
74434;PMS7003;62867;52.038;29.256;2023-07-31T02:25:27;0.2;0;0
74434;PMS7003;62867;52.038;29.256;2023-07-31T02:30:27;0;0;0
74434;PMS7003;62867;52.038;29.256;2023-07-31T02:35:49;0.3;0.3;0.3
74434;PMS7003;62867;52.038;29.256;2023-07-31T02:40:53;0;0;0
74434;PMS7003;62867;52.038;29.256;2023-07-31T02:45:35;0;0;0
74434;PMS7003;62867;52.038;29.256;2023-07-31T02:50:35;0;0;0
74434;PMS7003;62867;52.038;29.256;2023-07-31T02:55:21;0;0;0
74434;PMS7003;62867;52.038;29.256;2023-07-31T03:00:15;0;0;0
74434;PMS7003;62867;52.038;29.256;2023-07-31T03:05:33;0;0;0
74434;PMS7003;62867;52.038;29.256;2023-07-31T03:11:05;0;0;0
74434;PMS7003;62867;52.038;29.256;2023-07-31T03:15:49;0;0;0
74434;PMS7003;62867;52.038;29.256;2023-07-31T03:21:05;0;0;0
74434;PMS7003;62867;52.038;29.256;2023-07-31T03:25:35;0;0;0
74434;PMS7003;62867;52.038;29.256;2023-07-31T03:30:15;0.4;0.2;0.2
74434;PMS7003;62867;52.038;29.256;2023-07-31T03:35:33;0;0;0
74434;PMS7003;62867;52.038;29.256;2023-07-31T03:40:27;0.2;0.2;0
74434;PMS7003;62867;52.038;29.256;2023-07-31T03:45:15;0.2;0.2;0.2
74434;PMS7003;62867;52.038;29.256;2023-07-31T03:50:51;0.2;0;0
74434;PMS7003;62867;52.038;29.256;2023-07-31T03:55:37;0.6;0.4;0.2
74434;PMS7003;62867;52.038;29.256;2023-07-31T04:00:15;0;0;0
74434;PMS7003;62867;52.038;29.256;2023-07-31T04:05:15;0.4;0.4;0.4
74434;PMS7003;62867;52.038;29.256;2023-07-31T04:11:05;0.6;0.4;0.2
74434;PMS7003;62867;52.038;29.256;2023-07-31T04:16:05;0;0;0
74434;PMS7003;62867;52.038;29.256;2023-07-31T04:20:35;0;0;0
74434;PMS7003;62867;52.038;29.256;2023-07-31T04:25:15;0.2;0;0
74434;PMS7003;62867;52.038;29.256;2023-07-31T04:31:05;0.2;0.2;0.2
74434;PMS7003;62867;52.038;29.256;2023-07-31T04:35:15;0;0;0
74434;PMS7003;62867;52.038;29.256;2023-07-31T04:40:21;0.5;0;0
74434;PMS7003;62867;52.038;29.256;2023-07-31T04:46:01;0.6;0.6;0.6
74434;PMS7003;62867;52.038;29.256;2023-07-31T04:50:51;0.2;0.2;0.2
74434;PMS7003;62867;52.038;29.256;2023-07-31T04:56:05;0;0;0
74434;PMS7003;62867;52.038;29.256;2023-07-31T05:00:29;0;0;0
74434;PMS7003;62867;52.038;29.256;2023-07-31T05:06:03;0.6;0.6;0.2
74434;PMS7003;62867;52.038;29.256;2023-07-31T05:10:19;0.4;0.4;0.4
74434;PMS7003;62867;52.038;29.256;2023-07-31T05:16:03;0.4;0;0
74434;PMS7003;62867;52.038;29.256;2023-07-31T05:20:47;0.6;0.2;0
74434;PMS7003;62867;52.038;29.256;2023-07-31T05:25:35;0;0;0
74434;PMS7003;62867;52.038;29.256;2023-07-31T05:30:47;0.2;0.2;0
74434;PMS7003;62867;52.038;29.256;2023-07-31T05:35:47;0.4;0.4;0.4
74434;PMS7003;62867;52.038;29.256;2023-07-31T05:40:15;0.3;0.3;0
74434;PMS7003;62867;52.038;29.256;2023-07-31T05:45:15;1;0.8;0.4
74434;PMS7003;62867;52.038;29.256;2023-07-31T05:51:01;1.2;1.2;1.2
74434;PMS7003;62867;52.038;29.256;2023-07-31T05:55:47;1;1;0.6
74434;PMS7003;62867;52.038;29.256;2023-07-31T06:01:03;1.6;1.6;1.4
74434;PMS7003;62867;52.038;29.256;2023-07-31T06:05:49;1;0.6;0.2
74434;PMS7003;62867;52.038;29.256;2023-07-31T06:10:47;1;0.8;0.6
74434;PMS7003;62867;52.038;29.256;2023-07-31T06:15:15;1.4;1.4;1.2
74434;PMS7003;62867;52.038;29.256;2023-07-31T06:20:19;1.2;1.2;0.8
74434;PMS7003;62867;52.038;29.256;2023-07-31T06:25:59;1.6;1.6;1.2
74434;PMS7003;62867;52.038;29.256;2023-07-31T06:30:45;1.2;1;0.8
74434;PMS7003;62867;52.038;29.256;2023-07-31T06:35:33;1.4;1.4;1.4
74434;PMS7003;62867;52.038;29.256;2023-07-31T06:41:01;1.5;1.5;1.3
74434;PMS7003;62867;52.038;29.256;2023-07-31T06:46:04;1.4;1.4;1
74434;PMS7003;62867;52.038;29.256;2023-07-31T06:50:41;1.2;1.2;1.2
74434;PMS7003;62867;52.038;29.256;2023-07-31T06:55:29;1.2;1.2;0.8
74434;PMS7003;62867;52.038;29.256;2023-07-31T07:00:45;1.2;1.2;1.2
74434;PMS7003;62867;52.038;29.256;2023-07-31T07:05:45;1.6;1.6;1.2
74434;PMS7003;62867;52.038;29.256;2023-07-31T07:10:33;1;1;0.8
74434;PMS7003;62867;52.038;29.256;2023-07-31T07:15:15;0.6;0.6;0.4
74434;PMS7003;62867;52.038;29.256;2023-07-31T07:20:15;0.4;0.2;0
74434;PMS7003;62867;52.038;29.256;2023-07-31T07:25:29;0.2;0.2;0.2
74434;PMS7003;62867;52.038;29.256;2023-07-31T07:30:29;0.2;0.2;0.2
74434;PMS7003;62867;52.038;29.256;2023-07-31T07:35:59;0.4;0.4;0.2
74434;PMS7003;62867;52.038;29.256;2023-07-31T07:40:45;0.3;0.3;0
74434;PMS7003;62867;52.038;29.256;2023-07-31T07:45:47;0;0;0
74434;PMS7003;62867;52.038;29.256;2023-07-31T07:50:15;0.4;0.2;0.2
74434;PMS7003;62867;52.038;29.256;2023-07-31T07:55:19;0.4;0;0
74434;PMS7003;62867;52.038;29.256;2023-07-31T08:00:15;0.6;0.4;0
74434;PMS7003;62867;52.038;29.256;2023-07-31T08:05:29;0.4;0.4;0
74434;PMS7003;62867;52.038;29.256;2023-07-31T08:10:29;0.2;0.2;0.2
74434;PMS7003;62867;52.038;29.256;2023-07-31T08:15:49;0.6;0.6;0.2
74434;PMS7003;62867;52.038;29.256;2023-07-31T08:21:01;0.8;0.4;0.4
74434;PMS7003;62867;52.038;29.256;2023-07-31T08:25:29;0.8;0.4;0.2
74434;PMS7003;62867;52.038;29.256;2023-07-31T08:30:15;0;0;0
74434;PMS7003;62867;52.038;29.256;2023-07-31T08:35:45;0.2;0.2;0.2
74434;PMS7003;62867;52.038;29.256;2023-07-31T08:40:45;0.5;0.5;0.5
74434;PMS7003;62867;52.038;29.256;2023-07-31T08:45:33;0.8;0.4;0.4
74434;PMS7003;62867;52.038;29.256;2023-07-31T08:51:01;0.4;0.4;0
74434;PMS7003;62867;52.038;29.256;2023-07-31T08:55:49;0.8;0.6;0.4
74434;PMS7003;62867;52.038;29.256;2023-07-31T09:00:32;0.2;0.2;0.2
74434;PMS7003;62867;52.038;29.256;2023-07-31T09:05:19;0.4;0.2;0.2
74434;PMS7003;62867;52.038;29.256;2023-07-31T09:10:46;0.2;0.2;0
74434;PMS7003;62867;52.038;29.256;2023-07-31T09:15:49;0.2;0;0
74434;PMS7003;62867;52.038;29.256;2023-07-31T09:21:02;3.6;3.4;2.2
74434;PMS7003;62867;52.038;29.256;2023-07-31T09:25:15;5.4;5.2;3.8
74434;PMS7003;62867;52.038;29.256;2023-07-31T09:31:01;0.8;0.8;0.8
74434;PMS7003;62867;52.038;29.256;2023-07-31T09:35:19;1.4;1.4;1.2
74434;PMS7003;62867;52.038;29.256;2023-07-31T09:41:01;0.8;0.8;0.6
74434;PMS7003;62867;52.038;29.256;2023-07-31T09:45:45;2;2;1.8
74434;PMS7003;62867;52.038;29.256;2023-07-31T09:50:49;1;1;0.8
74434;PMS7003;62867;52.038;29.256;2023-07-31T09:55:47;0.4;0.4;0.2
74434;PMS7003;62867;52.038;29.256;2023-07-31T10:00:47;0.2;0.2;0
74434;PMS7003;62867;52.038;29.256;2023-07-31T10:05:34;1.4;1.4;1.2
74434;PMS7003;62867;52.038;29.256;2023-07-31T10:10:33;1.4;1.4;0.8
74434;PMS7003;62867;52.038;29.256;2023-07-31T10:16:03;0.8;0.8;0.8
74434;PMS7003;62867;52.038;29.256;2023-07-31T10:20:31;1.8;1.8;1
74434;PMS7003;62867;52.038;29.256;2023-07-31T10:26:03;1.4;1.4;1
74434;PMS7003;62867;52.038;29.256;2023-07-31T10:31:03;1.2;1.2;0.8
74434;PMS7003;62867;52.038;29.256;2023-07-31T10:35:31;1.8;1.8;1
74434;PMS7003;62867;52.038;29.256;2023-07-31T10:40:15;1;1;0.2
74434;PMS7003;62867;52.038;29.256;2023-07-31T10:45:33;3.3;3;2.3
74434;PMS7003;62867;52.038;29.256;2023-07-31T10:51:01;2.2;2.2;1.2
74434;PMS7003;62867;52.038;29.256;2023-07-31T10:55:35;2;1.8;1.4
74434;PMS7003;62867;52.038;29.256;2023-07-31T11:00:19;1.6;1.4;0.8
74434;PMS7003;62867;52.038;29.256;2023-07-31T11:06:00;2.2;2.2;1.2
74434;PMS7003;62867;52.038;29.256;2023-07-31T11:11:05;1.6;1.6;1.2
74434;PMS7003;62867;52.038;29.256;2023-07-31T11:15:31;2.2;2;1
74434;PMS7003;62867;52.038;29.256;2023-07-31T11:20:35;2.2;1.8;1
74434;PMS7003;62867;52.038;29.256;2023-07-31T11:25:47;1.8;1;0.4
74434;PMS7003;62867;52.038;29.256;2023-07-31T11:30:47;1.6;1.6;0.8
74434;PMS7003;62867;52.038;29.256;2023-07-31T11:35:34;1.8;1.2;0.6
74434;PMS7003;62867;52.038;29.256;2023-07-31T11:40:47;0.6;0.6;0.4
74434;PMS7003;62867;52.038;29.256;2023-07-31T11:45:33;0.3;0.3;0
74434;PMS7003;62867;52.038;29.256;2023-07-31T11:50:48;1;1;0.6
74434;PMS7003;62867;52.038;29.256;2023-07-31T11:55:31;1.6;1;0
74434;PMS7003;62867;52.038;29.256;2023-07-31T12:01:03;1.4;1.2;0.6
74434;PMS7003;62867;52.038;29.256;2023-07-31T12:05:21;0.4;0.4;0
74434;PMS7003;62867;52.038;29.256;2023-07-31T12:11:04;0;0;0
74434;PMS7003;62867;52.038;29.256;2023-07-31T12:15:34;0.2;0;0
74434;PMS7003;62867;52.038;29.256;2023-07-31T12:20:15;0;0;0
74434;PMS7003;62867;52.038;29.256;2023-07-31T12:25:43;0.2;0;0
74434;PMS7003;62867;52.038;29.256;2023-07-31T12:31:05;0;0;0
74434;PMS7003;62867;52.038;29.256;2023-07-31T12:35:34;0;0;0
74434;PMS7003;62867;52.038;29.256;2023-07-31T12:40:36;0.2;0;0
74434;PMS7003;62867;52.038;29.256;2023-07-31T12:46:05;0;0;0
74434;PMS7003;62867;52.038;29.256;2023-07-31T12:50:29;0.4;0.2;0.2
74434;PMS7003;62867;52.038;29.256;2023-07-31T12:55:31;0.2;0.2;0.2
74434;PMS7003;62867;52.038;29.256;2023-07-31T13:01:05;0;0;0
74434;PMS7003;62867;52.038;29.256;2023-07-31T13:05:15;0;0;0
74434;PMS7003;62867;52.038;29.256;2023-07-31T13:10:15;0.2;0.2;0.2
74434;PMS7003;62867;52.038;29.256;2023-07-31T13:15:49;0.2;0.2;0
74434;PMS7003;62867;52.038;29.256;2023-07-31T13:20:49;0.6;0.6;0
74434;PMS7003;62867;52.038;29.256;2023-07-31T13:25:33;0.8;0.8;0.6
74434;PMS7003;62867;52.038;29.256;2023-07-31T13:30:15;0.8;0.6;0.2
74434;PMS7003;62867;52.038;29.256;2023-07-31T13:36:05;0.4;0.4;0.4
74434;PMS7003;62867;52.038;29.256;2023-07-31T13:41:05;0.8;0.8;0.2
74434;PMS7003;62867;52.038;29.256;2023-07-31T13:45:33;0;0;0
74434;PMS7003;62867;52.038;29.256;2023-07-31T13:50:31;0.2;0;0
74434;PMS7003;62867;52.038;29.256;2023-07-31T13:56:05;0.2;0.2;0
74434;PMS7003;62867;52.038;29.256;2023-07-31T14:00:49;0;0;0
74434;PMS7003;62867;52.038;29.256;2023-07-31T14:05:19;0.2;0.2;0
74434;PMS7003;62867;52.038;29.256;2023-07-31T14:10:49;0;0;0
74434;PMS7003;62867;52.038;29.256;2023-07-31T14:15:49;0.2;0.2;0
74434;PMS7003;62867;52.038;29.256;2023-07-31T14:21:05;0.2;0.2;0
74434;PMS7003;62867;52.038;29.256;2023-07-31T14:25:33;0.4;0;0
74434;PMS7003;62867;52.038;29.256;2023-07-31T14:31:05;0.2;0;0
74434;PMS7003;62867;52.038;29.256;2023-07-31T14:35:19;0;0;0
74434;PMS7003;62867;52.038;29.256;2023-07-31T14:41:05;0.4;0;0
74434;PMS7003;62867;52.038;29.256;2023-07-31T14:45:33;0;0;0
74434;PMS7003;62867;52.038;29.256;2023-07-31T14:51:05;0;0;0
74434;PMS7003;62867;52.038;29.256;2023-07-31T14:56:05;0;0;0
74434;PMS7003;62867;52.038;29.256;2023-07-31T15:00:49;0.2;0;0
74434;PMS7003;62867;52.038;29.256;2023-07-31T15:05:33;0;0;0
74434;PMS7003;62867;52.038;29.256;2023-07-31T15:10:15;0.2;0;0
74434;PMS7003;62867;52.038;29.256;2023-07-31T15:16:05;0;0;0
74434;PMS7003;62867;52.038;29.256;2023-07-31T15:20:49;0;0;0
74434;PMS7003;62867;52.038;29.256;2023-07-31T15:25:19;0;0;0
74434;PMS7003;62867;52.038;29.256;2023-07-31T15:31:05;0;0;0
74434;PMS7003;62867;52.038;29.256;2023-07-31T15:36:05;0.2;0;0
74434;PMS7003;62867;52.038;29.256;2023-07-31T15:40:15;0.2;0;0
74434;PMS7003;62867;52.038;29.256;2023-07-31T15:45:31;0;0;0
74434;PMS7003;62867;52.038;29.256;2023-07-31T15:50:49;0.5;0;0
74434;PMS7003;62867;52.038;29.256;2023-07-31T15:55:49;0.2;0;0
74434;PMS7003;62867;52.038;29.256;2023-07-31T16:01:05;0;0;0
74434;PMS7003;62867;52.038;29.256;2023-07-31T16:05:15;0.6;0.6;0.6
74434;PMS7003;62867;52.038;29.256;2023-07-31T16:10:15;0.2;0.2;0.2
74434;PMS7003;62867;52.038;29.256;2023-07-31T16:15:31;0.2;0;0
74434;PMS7003;62867;52.038;29.256;2023-07-31T16:20:33;0;0;0
74434;PMS7003;62867;52.038;29.256;2023-07-31T16:26:05;0;0;0
74434;PMS7003;62867;52.038;29.256;2023-07-31T16:30:49;0;0;0
74434;PMS7003;62867;52.038;29.256;2023-07-31T16:36:05;0;0;0
74434;PMS7003;62867;52.038;29.256;2023-07-31T16:40:33;0.2;0.2;0
74434;PMS7003;62867;52.038;29.256;2023-07-31T16:45:13;0;0;0
74434;PMS7003;62867;52.038;29.256;2023-07-31T16:50:27;0.8;0.8;0.5
74434;PMS7003;62867;52.038;29.256;2023-07-31T16:55:33;0.2;0.2;0
74434;PMS7003;62867;52.038;29.256;2023-07-31T17:00:15;0.8;0.4;0
74434;PMS7003;62867;52.038;29.256;2023-07-31T17:05:49;1.2;1.2;0.4
74434;PMS7003;62867;52.038;29.256;2023-07-31T17:11:05;1.2;1.2;0.8
74434;PMS7003;62867;52.038;29.256;2023-07-31T17:15:33;1.2;1.2;0.8
74434;PMS7003;62867;52.038;29.256;2023-07-31T17:20:17;1.6;1.4;0.8
74434;PMS7003;62867;52.038;29.256;2023-07-31T17:26:05;2.2;2.2;1.2
74434;PMS7003;62867;52.038;29.256;2023-07-31T17:30:33;2.8;2.2;1.8
74434;PMS7003;62867;52.038;29.256;2023-07-31T17:35:45;1.8;1.8;1
74434;PMS7003;62867;52.038;29.256;2023-07-31T17:40:50;3.2;2.4;1.4
74434;PMS7003;62867;52.038;29.256;2023-07-31T17:45:47;2.6;2.2;1.4
74434;PMS7003;62867;52.038;29.256;2023-07-31T17:50:33;2.8;2.5;1.5
74434;PMS7003;62867;52.038;29.256;2023-07-31T17:55:51;3.2;3.2;2.6
74434;PMS7003;62867;52.038;29.256;2023-07-31T18:01:05;2;2;1.6
74434;PMS7003;62867;52.038;29.256;2023-07-31T18:06:07;2.2;2.2;1.8
74434;PMS7003;62867;52.038;29.256;2023-07-31T18:10:42;1.8;1.8;1.6
74434;PMS7003;62867;52.038;29.256;2023-07-31T18:15:15;2;1.8;1.8
74434;PMS7003;62867;52.038;29.256;2023-07-31T18:21:07;3;2.8;2.4
74434;PMS7003;62867;52.038;29.256;2023-07-31T18:26:03;2.8;2.8;2.2
74434;PMS7003;62867;52.038;29.256;2023-07-31T18:30:15;3.6;3.2;3
74434;PMS7003;62867;52.038;29.256;2023-07-31T18:35:49;2.2;2.2;1.4
74434;PMS7003;62867;52.038;29.256;2023-07-31T18:40:51;3;2.8;2
74434;PMS7003;62867;52.038;29.256;2023-07-31T18:46:07;2.8;2.8;2.2
74434;PMS7003;62867;52.038;29.256;2023-07-31T18:50:33;1.5;1.5;1.3
74434;PMS7003;62867;52.038;29.256;2023-07-31T18:56:07;0.8;0.8;0.6
74434;PMS7003;62867;52.038;29.256;2023-07-31T19:00:15;1.6;1.4;0.8
74434;PMS7003;62867;52.038;29.256;2023-07-31T19:06:07;1;1;0.8
74434;PMS7003;62867;52.038;29.256;2023-07-31T19:10:49;0.6;0.2;0.2
74434;PMS7003;62867;52.038;29.256;2023-07-31T19:15:47;1.6;1.6;1.2
74434;PMS7003;62867;52.038;29.256;2023-07-31T19:20:49;1;1;0.8
74434;PMS7003;62867;52.038;29.256;2023-07-31T19:25:49;1;0.6;0.6
74434;PMS7003;62867;52.038;29.256;2023-07-31T19:30:19;0.2;0.2;0.2
74434;PMS7003;62867;52.038;29.256;2023-07-31T19:35:15;0.2;0.2;0.2
74434;PMS7003;62867;52.038;29.256;2023-07-31T19:41:07;0.6;0.4;0.4
74434;PMS7003;62867;52.038;29.256;2023-07-31T19:45:29;0.4;0.4;0.2
74434;PMS7003;62867;52.038;29.256;2023-07-31T19:50:51;0.2;0.2;0.2
74434;PMS7003;62867;52.038;29.256;2023-07-31T19:56:07;0.3;0.3;0
74434;PMS7003;62867;52.038;29.256;2023-07-31T20:00:47;0.4;0;0
74434;PMS7003;62867;52.038;29.256;2023-07-31T20:05:13;0.2;0.2;0
74434;PMS7003;62867;52.038;29.256;2023-07-31T20:10:15;0;0;0
74434;PMS7003;62867;52.038;29.256;2023-07-31T20:15:51;0;0;0
74434;PMS7003;62867;52.038;29.256;2023-07-31T20:20:51;0;0;0
74434;PMS7003;62867;52.038;29.256;2023-07-31T20:25:35;0.2;0.2;0
74434;PMS7003;62867;52.038;29.256;2023-07-31T20:30:33;0.2;0.2;0.2
74434;PMS7003;62867;52.038;29.256;2023-07-31T20:35:35;0;0;0
74434;PMS7003;62867;52.038;29.256;2023-07-31T20:40:15;0;0;0
74434;PMS7003;62867;52.038;29.256;2023-07-31T20:45:15;0.2;0.2;0
74434;PMS7003;62867;52.038;29.256;2023-07-31T20:51:07;0.2;0.2;0
74434;PMS7003;62867;52.038;29.256;2023-07-31T20:55:21;0;0;0
74434;PMS7003;62867;52.038;29.256;2023-07-31T21:01:07;0.2;0;0
74434;PMS7003;62867;52.038;29.256;2023-07-31T21:05:19;0;0;0
74434;PMS7003;62867;52.038;29.256;2023-07-31T21:10:19;0.4;0.4;0.2
74434;PMS7003;62867;52.038;29.256;2023-07-31T21:15:49;0;0;0
74434;PMS7003;62867;52.038;29.256;2023-07-31T21:20:33;0;0;0
74434;PMS7003;62867;52.038;29.256;2023-07-31T21:25:35;0.6;0;0
74434;PMS7003;62867;52.038;29.256;2023-07-31T21:30:49;0;0;0
74434;PMS7003;62867;52.038;29.256;2023-07-31T21:36:07;0.4;0.4;0
74434;PMS7003;62867;52.038;29.256;2023-07-31T21:40:27;0;0;0
74434;PMS7003;62867;52.038;29.256;2023-07-31T21:45:13;0;0;0
74434;PMS7003;62867;52.038;29.256;2023-07-31T21:51:07;0.2;0;0
74434;PMS7003;62867;52.038;29.256;2023-07-31T21:55:33;0.5;0;0
74434;PMS7003;62867;52.038;29.256;2023-07-31T22:00:35;0;0;0
74434;PMS7003;62867;52.038;29.256;2023-07-31T22:05:51;0.4;0.4;0.2
74434;PMS7003;62867;52.038;29.256;2023-07-31T22:10:51;0;0;0
74434;PMS7003;62867;52.038;29.256;2023-07-31T22:15:33;0;0;0
74434;PMS7003;62867;52.038;29.256;2023-07-31T22:20:19;0;0;0
74434;PMS7003;62867;52.038;29.256;2023-07-31T22:26:07;0;0;0
74434;PMS7003;62867;52.038;29.256;2023-07-31T22:31:07;0;0;0
74434;PMS7003;62867;52.038;29.256;2023-07-31T22:35:15;0.2;0;0
74434;PMS7003;62867;52.038;29.256;2023-07-31T22:40:29;0;0;0
74434;PMS7003;62867;52.038;29.256;2023-07-31T22:46:07;0;0;0
74434;PMS7003;62867;52.038;29.256;2023-07-31T22:50:35;0;0;0
74434;PMS7003;62867;52.038;29.256;2023-07-31T22:55:15;0;0;0
74434;PMS7003;62867;52.038;29.256;2023-07-31T23:00:49;0.4;0.4;0.4
74434;PMS7003;62867;52.038;29.256;2023-07-31T23:05:51;0;0;0
74434;PMS7003;62867;52.038;29.256;2023-07-31T23:11:07;0;0;0
74434;PMS7003;62867;52.038;29.256;2023-07-31T23:15:37;0;0;0
74434;PMS7003;62867;52.038;29.256;2023-07-31T23:21:07;0;0;0
74434;PMS7003;62867;52.038;29.256;2023-07-31T23:25:47;0;0;0
74434;PMS7003;62867;52.038;29.256;2023-07-31T23:31:07;0;0;0
74434;PMS7003;62867;52.038;29.256;2023-07-31T23:35:49;0.2;0.2;0.2
74434;PMS7003;62867;52.038;29.256;2023-07-31T23:40:51;0;0;0
74434;PMS7003;62867;52.038;29.256;2023-07-31T23:45:17;0;0;0
74434;PMS7003;62867;52.038;29.256;2023-07-31T23:50:49;0.2;0;0
74434;PMS7003;62867;52.038;29.256;2023-07-31T23:55:15;0;0;0
